Terminal Aerodrome Forecast
Issued by NWS

Home | Current Version | Previous Version | Text Only | Print | Product List | Glossary On
Versions: 1 2 3 4 5 6 7 8 9 10 11 12 13
000
FTUS42 KJAX 201700
TAFCRG
TAF
KCRG 201727Z 2018/2118 04008KT P6SM BKN035 OVC090
     FM202300 03006KT P6SM BKN008 OVC030
     FM210200 03006KT P6SM OVC008
     FM210500 02004KT 5SM BR VCSH OVC006=

USA.gov is the U.S. government's official web portal to all federal, state and local government web resources and services.